Alturas Rancheria, California
Current Conditions -  °F | °C
As of 5:55 AM on Monday 20 Oct 2014 (Local Time) from KAAT Reporting Station
Clear Clear  
Wind Chill: 42°   Ceiling: Unl
Heat Index: 47°   Visibility: 10mi
Dew Point: 32°   Wind: 12mph
Humidity: 56%   Direction: 180°S
Pressure: 29.91"   Gusts: NA
Location:  41.4836°N, 120.55°W
Report Text: KAAT 201255Z AUTO 18010KT 10SM CLR 08/00 A2991 RMK AO2 SLP101 T00830000 $
Loading
Personal Weather Stations






























Interactive Weather Map New forecast layout! Learn more

10-Day Weather Forecast

Advertisements
Track Severe Weather on mobile